createdAt,value
2018-05-19T00:02:04.115Z,86.70
2018-05-19T00:04:31.757Z,87.31
2018-05-19T00:06:59.357Z,87.69
2018-05-19T00:09:26.990Z,86.67
2018-05-19T00:11:54.881Z,86.57
2018-05-19T00:14:22.653Z,86.02
2018-05-19T00:16:50.471Z,85.68
2018-05-19T00:19:18.681Z,86.38
2018-05-19T00:21:46.428Z,85.59
2018-05-19T00:24:14.012Z,85.80
2018-05-19T00:26:41.755Z,86.25
2018-05-19T00:29:10.250Z,86.96
2018-05-19T00:31:37.881Z,86.10
2018-05-19T00:34:05.552Z,85.80
2018-05-19T00:36:33.222Z,86.50
2018-05-19T00:39:01.695Z,86.29
2018-05-19T00:41:29.357Z,86.27
2018-05-19T00:43:57.182Z,86.67
2018-05-19T00:46:25.404Z,86.39
2018-05-19T00:48:53.342Z,86.80
2018-05-19T00:51:21.143Z,86.51
2018-05-19T00:53:48.924Z,86.63
2018-05-19T00:56:16.556Z,87.01
2018-05-19T00:58:44.254Z,86.29
2018-05-19T01:01:11.899Z,86.21
2018-05-19T01:03:40.151Z,86.50
2018-05-19T01:06:08.438Z,86.31
2018-05-19T01:08:36.803Z,86.44
2018-05-19T01:11:04.453Z,86.21
2018-05-19T01:13:32.302Z,86.55
2018-05-19T01:16:00.998Z,86.60
2018-05-19T01:18:28.702Z,86.61
2018-05-19T01:20:56.470Z,86.08
2018-05-19T01:23:24.550Z,85.98
2018-05-19T01:25:52.130Z,86.39
2018-05-19T01:28:20.067Z,86.94
2018-05-19T01:30:47.708Z,87.04
2018-05-19T01:33:15.501Z,87.10
2018-05-19T01:35:43.171Z,87.33
2018-05-19T01:38:10.826Z,87.39
2018-05-19T01:40:39.007Z,87.43
2018-05-19T01:43:06.652Z,87.76
2018-05-19T01:45:34.306Z,87.75
2018-05-19T01:48:02.304Z,87.72
2018-05-19T01:50:30.624Z,87.48
2018-05-19T01:52:58.788Z,87.76
2018-05-19T01:55:26.588Z,87.87
2018-05-19T01:57:54.264Z,87.75
2018-05-19T02:00:21.908Z,87.66
2018-05-19T02:02:50.222Z,87.85
2018-05-19T02:05:17.901Z,87.60
2018-05-19T02:07:46.446Z,87.24
2018-05-19T02:10:14.092Z,87.68
2018-05-19T02:12:41.791Z,88.11
2018-05-19T02:15:09.452Z,87.79
2018-05-19T02:17:37.322Z,87.30
2018-05-19T02:20:04.886Z,87.52
2018-05-19T02:22:32.532Z,87.74
2018-05-19T02:25:00.415Z,88.11
2018-05-19T02:27:28.014Z,87.96
2018-05-19T02:29:55.934Z,88.05
2018-05-19T02:32:23.518Z,88.22
2018-05-19T02:34:51.373Z,87.59
2018-05-19T02:37:18.997Z,87.88
2018-05-19T02:39:46.598Z,88.02
2018-05-19T02:42:14.495Z,87.97
2018-05-19T02:44:42.805Z,87.77
2018-05-19T02:47:10.477Z,87.73
2018-05-19T02:49:38.155Z,87.77
2018-05-19T02:52:05.797Z,88.05
2018-05-19T02:54:33.397Z,88.37
2018-05-19T02:57:01.295Z,88.65
2018-05-19T02:59:28.880Z,88.52
2018-05-19T03:01:56.584Z,88.44
2018-05-19T03:04:24.327Z,88.55
2018-05-19T03:06:52.089Z,88.64
2018-05-19T03:09:20.432Z,88.33
2018-05-19T03:11:48.123Z,87.75
2018-05-19T03:14:15.716Z,87.29
2018-05-19T03:16:43.677Z,88.16
2018-05-19T03:19:12.156Z,88.41
2018-05-19T03:21:39.818Z,88.03
2018-05-19T03:24:07.474Z,87.86
2018-05-19T03:26:35.274Z,87.76
2018-05-19T03:29:03.093Z,86.71
2018-05-19T03:31:30.772Z,87.51
2018-05-19T03:33:58.438Z,88.03
2018-05-19T03:36:26.105Z,88.58
2018-05-19T03:38:53.767Z,88.35
2018-05-19T03:41:21.527Z,88.41
2018-05-19T03:43:50.023Z,88.61
2018-05-19T03:46:18.208Z,88.63
2018-05-19T03:48:45.808Z,88.85
2018-05-19T03:51:13.797Z,88.97
2018-05-19T03:53:41.460Z,88.35
2018-05-19T03:56:09.121Z,88.16
2018-05-19T03:58:48.720Z,88.23
2018-05-19T04:01:28.043Z,88.09
2018-05-19T04:03:55.865Z,88.18
2018-05-19T04:06:23.671Z,87.97
2018-05-19T04:08:51.397Z,87.93
2018-05-19T04:11:19.908Z,88.22
2018-05-19T04:13:47.523Z,88.14
2018-05-19T04:16:15.283Z,87.83
2018-05-19T04:18:43.489Z,87.61
2018-05-19T04:21:11.136Z,87.36
2018-05-19T04:23:38.713Z,88.23
2018-05-19T04:26:07.097Z,88.00
2018-05-19T04:28:35.427Z,87.97
2018-05-19T04:31:03.030Z,87.58
2018-05-19T04:33:30.788Z,87.87
2018-05-19T04:35:58.462Z,88.06
2018-05-19T04:38:26.817Z,87.95
2018-05-19T04:40:54.538Z,87.96
2018-05-19T04:43:22.213Z,87.75
2018-05-19T04:45:50.670Z,87.75
2018-05-19T04:48:18.254Z,87.14
2018-05-19T04:50:45.935Z,87.14
2018-05-19T04:53:13.530Z,87.61
2018-05-19T04:55:41.117Z,87.97
2018-05-19T04:58:08.759Z,87.75
2018-05-19T05:00:37.455Z,87.50
2018-05-19T05:03:05.044Z,87.92
2018-05-19T05:05:32.874Z,87.99
2018-05-19T05:08:00.539Z,88.33
2018-05-19T05:10:28.387Z,88.59
2018-05-19T05:12:56.677Z,88.19
2018-05-19T05:15:24.340Z,88.24
2018-05-19T05:17:52.195Z,88.32
2018-05-19T05:20:19.958Z,87.98
2018-05-19T05:22:47.619Z,87.53
2018-05-19T05:25:15.445Z,88.04
2018-05-19T05:27:43.985Z,87.82
2018-05-19T05:30:11.835Z,87.12
2018-05-19T05:32:39.515Z,87.43
2018-05-19T05:35:07.326Z,87.06
2018-05-19T05:37:36.781Z,86.69
2018-05-19T05:40:05.159Z,86.34
2018-05-19T05:42:32.829Z,86.25
2018-05-19T05:45:00.479Z,85.48
2018-05-19T05:47:28.833Z,85.48
2018-05-19T05:49:56.617Z,85.38
2018-05-19T05:52:24.308Z,85.29
2018-05-19T05:54:53.412Z,85.20
2018-05-19T05:57:21.238Z,85.04
2018-05-19T05:59:49.423Z,85.30
2018-05-19T06:02:16.975Z,85.19
2018-05-19T06:04:44.843Z,85.72
2018-05-19T06:07:12.523Z,86.37
2018-05-19T06:09:40.369Z,86.74
2018-05-19T06:12:08.120Z,86.93
2018-05-19T06:14:35.922Z,86.61
2018-05-19T06:17:03.766Z,86.54
2018-05-19T06:19:31.641Z,85.46
2018-05-19T06:21:59.308Z,85.46
2018-05-19T06:24:27.796Z,85.87
2018-05-19T06:26:56.689Z,85.77
2018-05-19T06:29:24.717Z,85.79
2018-05-19T06:31:52.378Z,86.02
2018-05-19T06:34:20.042Z,85.44
2018-05-19T06:36:48.609Z,84.98
2018-05-19T06:39:16.794Z,84.81
2018-05-19T06:41:44.445Z,84.51
2018-05-19T06:44:12.029Z,84.27
2018-05-19T06:46:39.837Z,84.46
2018-05-19T06:49:08.210Z,84.59
2018-05-19T06:51:35.973Z,85.22
2018-05-19T06:54:04.049Z,85.43
2018-05-19T06:56:31.706Z,85.03
2018-05-19T06:58:59.369Z,85.07
2018-05-19T07:01:27.223Z,85.24
2018-05-19T07:03:54.883Z,84.72
2018-05-19T07:06:22.892Z,82.94
2018-05-19T07:08:50.838Z,83.16
2018-05-19T07:11:18.854Z,84.61
2018-05-19T07:13:46.574Z,84.54
2018-05-19T07:16:15.052Z,83.80
2018-05-19T07:18:43.414Z,82.91
2018-05-19T07:21:11.161Z,82.34
2018-05-19T07:23:39.138Z,82.99
2018-05-19T07:26:07.028Z,82.59
2018-05-19T07:28:35.008Z,81.06
2018-05-19T07:31:02.922Z,80.19
2018-05-19T07:33:30.633Z,80.77
2018-05-19T07:35:58.286Z,80.33
2018-05-19T07:38:25.972Z,81.06
2018-05-19T07:40:54.107Z,77.51
2018-05-19T07:43:21.768Z,78.63
2018-05-19T07:45:49.721Z,77.09
2018-05-19T07:48:18.659Z,77.22
2018-05-19T07:50:46.370Z,75.68
2018-05-19T07:53:14.040Z,77.03
2018-05-19T07:55:41.993Z,75.56
2018-05-19T07:58:09.741Z,76.02
2018-05-19T08:00:37.444Z,76.60
2018-05-19T08:03:05.236Z,78.22
2018-05-19T08:05:32.878Z,77.96
2018-05-19T08:08:00.996Z,77.60
2018-05-19T08:10:29.873Z,76.17
2018-05-19T08:12:57.499Z,74.22
2018-05-19T08:15:25.579Z,74.04
2018-05-19T08:17:53.552Z,75.42
2018-05-19T08:20:21.740Z,74.11
2018-05-19T08:22:49.940Z,76.66
2018-05-19T08:25:17.973Z,76.26
2018-05-19T08:27:45.982Z,72.07
2018-05-19T08:30:15.108Z,72.82
2018-05-19T08:32:43.155Z,73.70
2018-05-19T08:35:12.744Z,71.55
2018-05-19T08:37:40.687Z,73.55
2018-05-19T08:40:08.787Z,73.80
2018-05-19T08:42:36.638Z,70.00
2018-05-19T08:45:05.544Z,69.73
2018-05-19T08:47:34.151Z,67.58
2018-05-19T08:50:02.073Z,70.37
2018-05-19T08:52:30.066Z,69.30
2018-05-19T08:54:57.760Z,69.48
2018-05-19T08:57:25.850Z,67.61
2018-05-19T08:59:53.978Z,68.55
2018-05-19T09:02:22.818Z,67.36
2018-05-19T09:04:50.705Z,63.41
2018-05-19T09:07:18.774Z,63.44
2018-05-19T09:09:47.507Z,63.91
2018-05-19T09:12:15.508Z,60.53
2018-05-19T09:14:43.225Z,63.46
2018-05-19T09:17:10.881Z,63.21
2018-05-19T09:19:39.177Z,63.13
2018-05-19T09:22:07.001Z,62.06
2018-05-19T09:24:34.747Z,58.90
2018-05-19T09:27:03.591Z,61.07
2018-05-19T09:29:31.470Z,63.08
2018-05-19T09:31:59.175Z,62.15
2018-05-19T09:34:26.978Z,60.21
2018-05-19T09:36:56.081Z,58.34
2018-05-19T09:39:24.150Z,59.62
2018-05-19T09:41:52.879Z,58.22
2018-05-19T09:44:20.717Z,62.22
2018-05-19T09:46:48.365Z,61.09
2018-05-19T09:49:17.489Z,58.48
2018-05-19T09:51:45.516Z,61.10
2018-05-19T09:54:14.431Z,57.12
2018-05-19T09:56:43.524Z,56.58
2018-05-19T09:59:11.438Z,56.76
2018-05-19T10:01:39.805Z,54.86
2018-05-19T10:04:07.740Z,58.34
2018-05-19T10:06:35.709Z,54.73
2018-05-19T10:09:03.780Z,52.42
2018-05-19T10:11:31.748Z,53.70
2018-05-19T10:13:59.565Z,50.96
2018-05-19T10:16:27.179Z,52.10
2018-05-19T10:18:54.828Z,51.27
2018-05-19T10:21:22.945Z,50.47
2018-05-19T10:23:50.781Z,47.04
2018-05-19T10:26:18.443Z,48.14
2018-05-19T10:28:46.515Z,48.83
2018-05-19T10:31:14.392Z,45.39
2018-05-19T10:33:42.349Z,47.47
2018-05-19T10:36:10.216Z,48.72
2018-05-19T10:38:38.586Z,48.89
2018-05-19T10:41:06.769Z,45.30
2018-05-19T10:43:34.653Z,43.60
2018-05-19T10:46:03.076Z,46.87
2018-05-19T10:48:30.960Z,44.26
2018-05-19T10:50:59.575Z,45.49
2018-05-19T10:53:27.217Z,41.49
2018-05-19T10:55:56.027Z,42.76
2018-05-19T10:58:24.340Z,41.30
2018-05-19T11:00:52.577Z,44.12
2018-05-19T11:03:20.178Z,43.77
2018-05-19T11:05:48.108Z,43.44
2018-05-19T11:08:16.076Z,40.53
2018-05-19T11:10:43.840Z,40.45
2018-05-19T11:13:11.602Z,41.52
2018-05-19T11:15:39.536Z,41.24
2018-05-19T11:18:07.541Z,40.60
2018-05-19T11:20:35.166Z,40.02
2018-05-19T11:23:03.067Z,39.96
2018-05-19T11:25:31.003Z,40.04
2018-05-19T11:27:58.684Z,40.10
2018-05-19T11:30:26.513Z,40.29
2018-05-19T11:32:54.339Z,38.76
2018-05-19T11:35:22.208Z,37.21
2018-05-19T11:37:49.902Z,38.08
2018-05-19T11:40:17.734Z,36.87
2018-05-19T11:42:45.333Z,39.71
2018-05-19T11:45:13.035Z,40.73
2018-05-19T11:47:40.643Z,41.66
2018-05-19T11:50:09.041Z,44.04
2018-05-19T11:52:36.937Z,43.76
2018-05-19T11:55:06.121Z,43.08
2018-05-19T11:57:33.936Z,44.83
2018-05-19T12:00:01.692Z,44.77
2018-05-19T12:02:29.355Z,45.68
2018-05-19T12:04:57.788Z,45.39
2018-05-19T12:07:26.525Z,47.88
2018-05-19T12:09:54.797Z,47.76
2018-05-19T12:12:22.971Z,47.55
2018-05-19T12:14:51.404Z,43.95
2018-05-19T12:17:19.733Z,45.65
2018-05-19T12:19:47.453Z,45.92
2018-05-19T12:22:15.138Z,46.42
2018-05-19T12:24:42.850Z,44.53
2018-05-19T12:27:10.488Z,44.76
2018-05-19T12:29:38.210Z,44.35
2018-05-19T12:32:06.214Z,43.95
2018-05-19T12:34:33.992Z,44.16
2018-05-19T12:37:01.837Z,46.47
2018-05-19T12:39:29.874Z,47.20
2018-05-19T12:41:58.639Z,51.05
2018-05-19T12:44:26.514Z,51.91
2018-05-19T12:46:54.346Z,52.90
2018-05-19T12:49:22.111Z,54.06
2018-05-19T12:51:49.830Z,57.27
2018-05-19T12:54:19.202Z,56.32
2018-05-19T12:56:46.872Z,57.92
2018-05-19T12:59:14.497Z,55.96
2018-05-19T13:01:42.191Z,55.19
2018-05-19T13:04:10.236Z,54.00
2018-05-19T13:06:38.273Z,55.01
2018-05-19T13:09:07.236Z,55.97
2018-05-19T13:11:35.063Z,54.33
2018-05-19T13:14:02.932Z,46.93
2018-05-19T13:16:30.624Z,49.15
2018-05-19T13:18:58.238Z,46.31
2018-05-19T13:21:26.099Z,46.58
2018-05-19T13:23:55.214Z,50.69
2018-05-19T13:26:23.672Z,56.57
2018-05-19T13:28:51.364Z,55.93
2018-05-19T13:31:19.136Z,54.92
2018-05-19T13:33:46.810Z,52.76
2018-05-19T13:36:15.728Z,53.82
2018-05-19T13:38:43.381Z,56.10
2018-05-19T13:41:11.079Z,56.42
2018-05-19T13:43:39.385Z,57.16
2018-05-19T13:46:07.200Z,58.32
2018-05-19T13:48:35.309Z,58.56
2018-05-19T13:51:03.683Z,58.68
2018-05-19T13:53:31.555Z,59.21
2018-05-19T13:55:59.420Z,59.27
2018-05-19T13:58:27.165Z,54.87
2018-05-19T14:00:54.873Z,55.62
2018-05-19T14:03:22.675Z,56.05
2018-05-19T14:05:50.680Z,54.73
2018-05-19T14:08:18.847Z,54.19
2018-05-19T14:10:47.389Z,53.69
2018-05-19T14:13:15.600Z,53.45
2018-05-19T14:15:43.299Z,53.70
2018-05-19T14:18:10.975Z,53.26
2018-05-19T14:20:38.705Z,54.16
2018-05-19T14:23:06.314Z,52.57
2018-05-19T14:25:34.110Z,53.44
2018-05-19T14:28:01.775Z,50.79
2018-05-19T14:30:29.388Z,50.12
2018-05-19T14:32:57.040Z,51.34
2018-05-19T14:35:24.728Z,50.62
2018-05-19T14:37:52.361Z,51.22
2018-05-19T14:40:20.135Z,51.63
2018-05-19T14:42:47.839Z,50.84
2018-05-19T14:45:15.528Z,48.87
2018-05-19T14:47:43.471Z,49.93
2018-05-19T14:50:11.132Z,50.01
2018-05-19T14:52:38.810Z,49.42
2018-05-19T14:55:06.499Z,49.14
2018-05-19T14:57:34.104Z,49.38
2018-05-19T15:00:02.078Z,54.35
2018-05-19T15:02:29.848Z,52.82
2018-05-19T15:04:58.836Z,52.98
2018-05-19T15:07:27.454Z,52.94
2018-05-19T15:09:55.521Z,52.23
2018-05-19T15:12:23.337Z,53.40
2018-05-19T15:14:51.081Z,53.23
2018-05-19T15:17:18.770Z,49.97
2018-05-19T15:19:47.060Z,50.70
2018-05-19T15:22:16.138Z,52.17
2018-05-19T15:24:44.056Z,51.98
2018-05-19T15:27:11.746Z,51.61
2018-05-19T15:29:39.400Z,51.51
2018-05-19T15:32:07.075Z,51.92
2018-05-19T15:34:35.422Z,52.07
2018-05-19T15:37:03.226Z,52.95
2018-05-19T15:39:30.882Z,53.60
2018-05-19T15:41:58.958Z,54.08
2018-05-19T15:44:26.827Z,54.13
2018-05-19T15:46:54.689Z,54.16
2018-05-19T15:49:22.649Z,53.92
2018-05-19T15:51:51.271Z,55.63
2018-05-19T15:54:18.897Z,56.07
2018-05-19T15:56:46.549Z,55.18
2018-05-19T15:59:14.233Z,54.74
2018-05-19T16:01:41.892Z,54.85
2018-05-19T16:04:09.498Z,51.61
2018-05-19T16:06:37.176Z,50.70
2018-05-19T16:09:05.221Z,52.63
2018-05-19T16:11:32.921Z,54.77
2018-05-19T16:14:00.801Z,54.30
2018-05-19T16:16:28.706Z,54.20
2018-05-19T16:18:56.431Z,54.88
2018-05-19T16:21:24.921Z,54.74
2018-05-19T16:23:53.728Z,54.98
2018-05-19T16:26:21.851Z,56.13
2018-05-19T16:28:50.219Z,55.82
2018-05-19T16:31:18.354Z,56.09
2018-05-19T16:33:47.328Z,56.20
2018-05-19T16:36:15.709Z,57.19
2018-05-19T16:38:43.622Z,57.18
2018-05-19T16:41:12.671Z,58.00
2018-05-19T16:43:40.447Z,55.97
2018-05-19T16:46:08.179Z,57.93
2018-05-19T16:48:37.593Z,57.88
2018-05-19T16:51:05.590Z,57.93
2018-05-19T16:53:35.301Z,58.42
2018-05-19T16:56:03.229Z,58.79
2018-05-19T16:58:32.219Z,61.03
2018-05-19T17:01:00.190Z,60.96
2018-05-19T17:03:28.187Z,61.83
2018-05-19T17:05:56.768Z,63.18
2018-05-19T17:08:25.712Z,63.37
2018-05-19T17:10:53.666Z,63.86
2018-05-19T17:13:21.597Z,63.54
2018-05-19T17:15:50.998Z,62.81
2018-05-19T17:18:18.959Z,63.16
2018-05-19T17:20:48.211Z,62.48
2018-05-19T17:23:16.197Z,61.75
2018-05-19T17:25:44.028Z,62.42
2018-05-19T17:28:12.189Z,62.23
2018-05-19T17:30:40.584Z,62.58
2018-05-19T17:33:08.508Z,63.30
2018-05-19T17:35:36.201Z,62.71
2018-05-19T17:38:04.279Z,63.03
2018-05-19T17:40:31.974Z,62.08
2018-05-19T17:43:00.334Z,61.69
2018-05-19T17:45:28.412Z,63.40
2018-05-19T17:47:56.186Z,63.21
2018-05-19T17:50:24.694Z,63.39
2018-05-19T17:52:52.861Z,63.09
2018-05-19T17:55:21.499Z,62.60
2018-05-19T17:57:49.260Z,63.12
2018-05-19T18:00:17.052Z,63.87
2018-05-19T18:02:45.579Z,63.69
2018-05-19T18:05:13.414Z,63.21
2018-05-19T18:07:41.777Z,63.86
2018-05-19T18:10:10.392Z,64.15
2018-05-19T18:12:38.063Z,64.05
2018-05-19T18:15:05.831Z,63.79
2018-05-19T18:17:33.623Z,63.73
2018-05-19T18:20:01.329Z,64.61
2018-05-19T18:22:29.261Z,66.45
2018-05-19T18:24:57.337Z,67.00
2018-05-19T18:27:25.818Z,67.01
2018-05-19T18:29:54.186Z,67.86
2018-05-19T18:32:22.908Z,67.25
2018-05-19T18:34:50.588Z,68.06
2018-05-19T18:37:18.291Z,68.78
2018-05-19T18:39:47.396Z,70.08
2018-05-19T18:42:15.174Z,69.49
2018-05-19T18:44:42.928Z,71.02
2018-05-19T18:47:10.595Z,70.88
2018-05-19T18:49:38.381Z,71.00
2018-05-19T18:52:07.521Z,70.58
2018-05-19T18:54:36.636Z,70.87
2018-05-19T18:57:05.546Z,70.53
2018-05-19T18:59:33.863Z,70.72
2018-05-19T19:02:01.638Z,71.15
2018-05-19T19:04:29.350Z,70.79
2018-05-19T19:06:57.085Z,71.06
2018-05-19T19:09:24.886Z,71.41
2018-05-19T19:11:52.859Z,72.60
2018-05-19T19:14:20.927Z,72.11
2018-05-19T19:16:49.157Z,72.16
2018-05-19T19:19:16.864Z,73.21
2018-05-19T19:21:44.939Z,73.11
2018-05-19T19:24:12.788Z,73.24
2018-05-19T19:26:40.907Z,73.36
2018-05-19T19:29:09.765Z,73.17
2018-05-19T19:31:37.555Z,73.87
2018-05-19T19:34:05.269Z,73.50
2018-05-19T19:36:33.207Z,74.32
2018-05-19T19:39:01.633Z,73.78
2018-05-19T19:41:29.492Z,73.10
2018-05-19T19:43:57.563Z,73.00
2018-05-19T19:46:25.459Z,72.80
2018-05-19T19:48:53.504Z,72.19
2018-05-19T19:51:21.322Z,72.68
2018-05-19T19:53:50.172Z,72.47
2018-05-19T19:56:18.154Z,73.17
2018-05-19T19:58:46.325Z,73.12
2018-05-19T20:01:14.810Z,73.55
2018-05-19T20:03:42.803Z,73.26
2018-05-19T20:06:10.797Z,73.75
2018-05-19T20:08:38.841Z,74.34
2018-05-19T20:11:07.484Z,73.98
2018-05-19T20:13:35.722Z,74.16
2018-05-19T20:16:04.669Z,74.54
2018-05-19T20:18:33.355Z,74.72
2018-05-19T20:21:01.736Z,75.57
2018-05-19T20:23:31.033Z,75.43
2018-05-19T20:25:59.323Z,74.91
2018-05-19T20:28:28.409Z,75.54
2018-05-19T20:30:56.304Z,75.68
2018-05-19T20:33:24.243Z,75.73
2018-05-19T20:35:52.402Z,75.55
2018-05-19T20:38:20.394Z,75.43
2018-05-19T20:40:50.190Z,75.41
2018-05-19T20:43:17.964Z,75.47
2018-05-19T20:45:46.472Z,76.29
2018-05-19T20:48:15.258Z,76.63
2018-05-19T20:50:43.522Z,76.69
2018-05-19T20:53:12.326Z,77.06
2018-05-19T20:55:40.475Z,76.71
2018-05-19T20:58:09.210Z,77.05
2018-05-19T21:00:37.883Z,76.94
2018-05-19T21:03:05.922Z,76.75
2018-05-19T21:05:33.737Z,76.54
2018-05-19T21:08:02.077Z,76.91
2018-05-19T21:10:31.397Z,77.31
2018-05-19T21:12:59.436Z,78.28
2018-05-19T21:15:27.712Z,77.74
2018-05-19T21:17:55.567Z,78.53
2018-05-19T21:20:23.662Z,78.86
2018-05-19T21:22:52.556Z,77.85
2018-05-19T21:25:20.616Z,77.82
2018-05-19T21:27:48.574Z,78.58
2018-05-19T21:30:16.369Z,78.13
2018-05-19T21:32:44.201Z,77.85
2018-05-19T21:35:11.878Z,78.05
2018-05-19T21:37:39.951Z,77.94
2018-05-19T21:40:08.049Z,78.23
2018-05-19T21:42:35.982Z,79.55
2018-05-19T21:45:04.788Z,78.51
2018-05-19T21:47:32.547Z,79.36
2018-05-19T21:50:00.437Z,78.87
2018-05-19T21:52:29.116Z,78.79
2018-05-19T21:54:56.892Z,78.69
2018-05-19T21:57:24.761Z,79.24
2018-05-19T21:59:52.441Z,79.12
2018-05-19T22:02:20.462Z,78.79
2018-05-19T22:04:48.217Z,79.35
2018-05-19T22:07:16.339Z,78.95
2018-05-19T22:09:44.015Z,78.83
2018-05-19T22:12:11.642Z,78.74
2018-05-19T22:14:39.387Z,78.82
2018-05-19T22:17:07.050Z,79.01
2018-05-19T22:19:34.925Z,78.95
2018-05-19T22:22:02.582Z,79.86
2018-05-19T22:24:30.220Z,79.69
2018-05-19T22:26:58.323Z,79.59
2018-05-19T22:29:26.183Z,80.24
2018-05-19T22:31:53.773Z,80.57
2018-05-19T22:34:21.510Z,80.59
2018-05-19T22:36:49.893Z,80.54
2018-05-19T22:39:17.665Z,80.23
2018-05-19T22:41:45.512Z,80.49
2018-05-19T22:44:13.287Z,80.96
2018-05-19T22:46:41.520Z,80.16
2018-05-19T22:49:09.501Z,80.32
2018-05-19T22:51:37.300Z,80.39
2018-05-19T22:54:04.980Z,80.72
2018-05-19T22:56:32.643Z,80.90
2018-05-19T22:59:00.303Z,80.47
2018-05-19T23:01:28.144Z,81.00
2018-05-19T23:03:55.812Z,81.44
2018-05-19T23:06:23.477Z,81.28
2018-05-19T23:08:51.252Z,81.11
2018-05-19T23:11:18.986Z,80.46
2018-05-19T23:13:46.590Z,80.88
2018-05-19T23:16:14.242Z,80.50
2018-05-19T23:18:42.440Z,81.20
2018-05-19T23:21:10.058Z,81.77
2018-05-19T23:23:38.394Z,81.66
2018-05-19T23:26:06.048Z,80.76
2018-05-19T23:28:33.626Z,80.84
2018-05-19T23:31:01.297Z,81.38
2018-05-19T23:33:28.908Z,81.48
2018-05-19T23:35:56.494Z,81.35
2018-05-19T23:38:24.143Z,81.63
2018-05-19T23:40:51.780Z,81.68
2018-05-19T23:43:19.435Z,81.76
2018-05-19T23:45:47.852Z,81.46
2018-05-19T23:48:16.282Z,81.44
2018-05-19T23:50:43.958Z,81.58
2018-05-19T23:53:12.236Z,81.37
2018-05-19T23:55:39.905Z,81.07
2018-05-19T23:58:07.749Z,80.71
